createdAt,value
2018-03-27T00:02:23.896Z,3.50
2018-03-27T00:04:52.108Z,3.50
2018-03-27T00:07:21.189Z,3.40
2018-03-27T00:09:49.390Z,3.40
2018-03-27T00:12:18.391Z,3.40
2018-03-27T00:14:46.673Z,3.40
2018-03-27T00:17:14.890Z,3.40
2018-03-27T00:19:43.084Z,3.40
2018-03-27T00:22:11.312Z,3.50
2018-03-27T00:24:42.425Z,3.50
2018-03-27T00:27:10.976Z,3.60
2018-03-27T00:29:51.330Z,3.50
2018-03-27T00:32:31.224Z,3.60
2018-03-27T00:35:11.375Z,3.60
2018-03-27T00:37:52.036Z,3.50
2018-03-27T00:40:32.104Z,3.50
2018-03-27T00:43:01.136Z,3.40
2018-03-27T00:45:29.338Z,3.50
2018-03-27T00:47:57.577Z,3.40
2018-03-27T00:50:25.802Z,3.40
2018-03-27T00:52:54.057Z,3.30
2018-03-27T00:55:22.744Z,3.30
2018-03-27T00:57:50.924Z,3.40
2018-03-27T01:00:19.144Z,3.30
2018-03-27T01:02:47.417Z,3.30
2018-03-27T01:05:15.633Z,3.30
2018-03-27T01:07:43.821Z,3.30
2018-03-27T01:10:12.076Z,3.40
2018-03-27T01:12:40.422Z,3.40
2018-03-27T01:15:08.655Z,3.40
2018-03-27T01:17:36.836Z,3.40
2018-03-27T01:20:05.805Z,3.40
2018-03-27T01:22:34.050Z,3.40
2018-03-27T01:25:02.285Z,3.40
2018-03-27T01:27:31.257Z,3.40
2018-03-27T01:29:59.472Z,3.30
2018-03-27T01:32:27.697Z,3.40
2018-03-27T01:34:55.902Z,3.40
2018-03-27T01:37:24.876Z,3.40
2018-03-27T01:39:53.136Z,3.40
2018-03-27T01:42:21.412Z,3.40
2018-03-27T01:44:49.640Z,3.30
2018-03-27T01:47:17.860Z,3.30
2018-03-27T01:49:46.110Z,3.30
2018-03-27T01:52:14.318Z,3.20
2018-03-27T01:54:43.875Z,3.20
2018-03-27T01:57:12.118Z,3.10
2018-03-27T01:59:40.369Z,3.10
2018-03-27T02:02:08.598Z,3.00
2018-03-27T02:04:36.804Z,3.00
2018-03-27T02:07:04.997Z,3.00
2018-03-27T02:09:33.239Z,3.00
2018-03-27T02:12:07.113Z,2.90
2018-03-27T02:14:41.904Z,2.80
2018-03-27T02:17:15.771Z,2.80
2018-03-27T02:19:49.697Z,2.80
2018-03-27T02:22:17.970Z,2.90
2018-03-27T02:24:46.207Z,2.80
2018-03-27T02:27:15.244Z,2.90
2018-03-27T02:29:43.540Z,2.90
2018-03-27T02:32:11.746Z,2.90
2018-03-27T02:34:40.070Z,3.00
2018-03-27T02:37:08.254Z,2.90
2018-03-27T02:39:36.453Z,2.90
2018-03-27T02:42:04.730Z,2.90
2018-03-27T02:44:32.925Z,2.90
2018-03-27T02:47:01.242Z,3.00
2018-03-27T02:49:29.633Z,2.90
2018-03-27T02:51:57.826Z,2.80
2018-03-27T02:54:26.800Z,2.80
2018-03-27T02:56:56.332Z,2.80
2018-03-27T02:59:24.692Z,2.80
2018-03-27T03:01:53.629Z,2.90
2018-03-27T03:04:22.778Z,2.90
2018-03-27T03:06:50.981Z,2.90
2018-03-27T03:09:19.175Z,2.90
2018-03-27T03:11:48.165Z,2.90
2018-03-27T03:14:16.404Z,2.80
2018-03-27T03:16:44.596Z,2.80
2018-03-27T03:19:13.772Z,2.90
2018-03-27T03:21:42.048Z,2.90
2018-03-27T03:24:11.054Z,2.90
2018-03-27T03:26:39.261Z,2.90
2018-03-27T03:29:08.258Z,2.80
2018-03-27T03:31:37.214Z,2.80
2018-03-27T03:34:05.459Z,2.80
2018-03-27T03:36:33.731Z,2.70
2018-03-27T03:39:02.005Z,2.70
2018-03-27T03:41:30.292Z,2.70
2018-03-27T03:43:58.489Z,2.70
2018-03-27T03:46:26.729Z,2.70
2018-03-27T03:48:55.106Z,2.60
2018-03-27T03:51:23.322Z,2.60
2018-03-27T03:53:51.592Z,2.70
2018-03-27T03:56:20.075Z,2.70
2018-03-27T03:58:48.484Z,2.70
2018-03-27T04:01:16.800Z,2.80
2018-03-27T04:03:45.234Z,2.70
2018-03-27T04:06:13.433Z,2.70
2018-03-27T04:08:42.443Z,2.70
2018-03-27T04:11:10.717Z,2.70
2018-03-27T04:13:38.931Z,2.70
2018-03-27T04:16:08.224Z,2.80
2018-03-27T04:18:36.455Z,2.70
2018-03-27T04:21:05.419Z,2.70
2018-03-27T04:23:33.637Z,2.70
2018-03-27T04:26:01.956Z,2.70
2018-03-27T04:28:30.140Z,2.70
2018-03-27T04:30:58.354Z,2.80
2018-03-27T04:33:27.417Z,2.80
2018-03-27T04:35:56.038Z,2.80
2018-03-27T04:38:25.029Z,2.80
2018-03-27T04:40:54.111Z,2.90
2018-03-27T04:43:22.308Z,2.80
2018-03-27T04:45:50.512Z,2.90
2018-03-27T04:48:18.792Z,2.90
2018-03-27T04:50:47.080Z,2.90
2018-03-27T04:53:15.345Z,2.90
2018-03-27T04:55:43.592Z,2.90
2018-03-27T04:58:11.847Z,2.80
2018-03-27T05:00:40.954Z,2.70
2018-03-27T05:03:09.972Z,2.70
2018-03-27T05:05:38.224Z,2.60
2018-03-27T05:08:06.425Z,2.60
2018-03-27T05:10:34.693Z,2.60
2018-03-27T05:13:03.039Z,2.60
2018-03-27T05:15:32.026Z,2.60
2018-03-27T05:18:00.266Z,2.50
2018-03-27T05:20:28.481Z,2.50
2018-03-27T05:22:57.561Z,2.50
2018-03-27T05:25:25.765Z,2.50
2018-03-27T05:27:54.007Z,2.50
2018-03-27T05:30:22.302Z,2.40
2018-03-27T05:32:51.373Z,2.30
2018-03-27T05:35:19.558Z,2.30
2018-03-27T05:37:47.812Z,2.30
2018-03-27T05:40:16.069Z,2.30
2018-03-27T05:42:44.286Z,2.20
2018-03-27T05:45:12.703Z,2.20
2018-03-27T05:47:40.943Z,2.20
2018-03-27T05:50:09.935Z,2.20
2018-03-27T05:52:38.145Z,2.20
2018-03-27T05:55:07.193Z,2.40
2018-03-27T05:57:35.372Z,2.30
2018-03-27T06:00:03.612Z,2.30
2018-03-27T06:05:09.549Z,2.30
2018-03-27T06:07:37.749Z,2.30
2018-03-27T06:10:06.717Z,2.30
2018-03-27T06:12:35.825Z,2.20
2018-03-27T06:15:04.081Z,2.20
2018-03-27T06:17:33.126Z,2.20
2018-03-27T06:20:01.379Z,2.20
2018-03-27T06:22:29.744Z,2.40
2018-03-27T06:24:58.713Z,2.50
2018-03-27T06:27:27.024Z,2.50
2018-03-27T06:29:55.197Z,2.50
2018-03-27T06:32:23.441Z,2.60
2018-03-27T06:34:51.645Z,2.60
2018-03-27T06:37:19.950Z,2.60
2018-03-27T06:39:48.446Z,2.70
2018-03-27T06:42:16.689Z,2.70
2018-03-27T06:44:45.097Z,2.80
2018-03-27T06:47:14.251Z,2.90
2018-03-27T06:49:42.495Z,3.00
2018-03-27T06:52:10.860Z,3.00
2018-03-27T06:54:39.154Z,3.20
2018-03-27T06:57:07.349Z,3.40
2018-03-27T06:59:36.369Z,3.70
2018-03-27T07:02:04.596Z,3.60
2018-03-27T07:04:32.965Z,3.50
2018-03-27T07:07:01.218Z,3.60
2018-03-27T07:09:29.452Z,3.70
2018-03-27T07:11:57.649Z,3.80
2018-03-27T07:14:26.649Z,4.10
2018-03-27T07:16:55.582Z,4.20
2018-03-27T07:19:23.804Z,4.10
2018-03-27T07:21:52.160Z,4.40
2018-03-27T07:24:21.203Z,4.90
2018-03-27T07:26:49.460Z,4.90
2018-03-27T07:29:17.655Z,5.10
2018-03-27T07:31:45.869Z,5.00
2018-03-27T07:34:14.141Z,5.10
2018-03-27T07:36:42.492Z,5.40
2018-03-27T07:39:10.701Z,5.50
2018-03-27T07:41:38.975Z,5.50
2018-03-27T07:44:07.233Z,5.70
2018-03-27T07:46:35.513Z,5.70
2018-03-27T07:49:03.714Z,5.80
2018-03-27T07:51:31.941Z,6.00
2018-03-27T07:54:00.229Z,6.10
2018-03-27T07:56:28.423Z,6.20
2018-03-27T07:58:56.649Z,6.20
2018-03-27T08:01:24.843Z,6.30
2018-03-27T08:03:53.048Z,6.30
2018-03-27T08:06:21.476Z,6.10
2018-03-27T08:08:49.794Z,6.00
2018-03-27T08:11:18.085Z,5.80
2018-03-27T08:13:46.301Z,5.90
2018-03-27T08:16:14.496Z,5.90
2018-03-27T08:18:42.705Z,6.40
2018-03-27T08:21:10.931Z,6.60
2018-03-27T08:23:39.133Z,6.80
2018-03-27T08:26:07.333Z,6.80
2018-03-27T08:28:35.621Z,6.70
2018-03-27T08:31:03.832Z,7.10
2018-03-27T08:33:32.034Z,7.00
2018-03-27T08:36:01.041Z,7.50
2018-03-27T08:38:29.505Z,7.50
2018-03-27T08:40:57.762Z,7.90
2018-03-27T08:43:26.079Z,7.30
2018-03-27T08:45:54.404Z,7.70
2018-03-27T08:48:22.584Z,7.50
2018-03-27T08:50:50.856Z,7.50
2018-03-27T08:53:19.072Z,7.90
2018-03-27T08:55:47.352Z,7.80
2018-03-27T08:58:15.586Z,8.40
2018-03-27T09:00:43.915Z,9.20
2018-03-27T09:03:12.076Z,10.00
2018-03-27T09:05:41.569Z,10.20
2018-03-27T09:08:10.023Z,9.40
2018-03-27T09:10:38.387Z,8.90
2018-03-27T09:13:07.483Z,8.80
2018-03-27T09:15:36.451Z,8.60
2018-03-27T09:18:04.677Z,8.60
2018-03-27T09:20:34.189Z,8.60
2018-03-27T09:23:02.432Z,8.90
2018-03-27T09:25:31.426Z,9.80
2018-03-27T09:28:01.598Z,10.10
2018-03-27T09:30:29.828Z,10.00
2018-03-27T09:32:59.330Z,10.80
2018-03-27T09:35:28.404Z,10.70
2018-03-27T09:37:56.621Z,10.70
2018-03-27T09:40:24.826Z,10.90
2018-03-27T09:42:53.057Z,11.40
2018-03-27T09:45:21.339Z,10.20
2018-03-27T09:47:49.537Z,9.70
2018-03-27T09:50:17.846Z,9.30
2018-03-27T09:52:46.057Z,9.80
2018-03-27T09:55:14.260Z,9.70
2018-03-27T09:57:42.681Z,9.70
2018-03-27T10:00:10.869Z,9.50
2018-03-27T10:02:39.121Z,9.00
2018-03-27T10:05:07.380Z,9.00
2018-03-27T10:07:35.616Z,8.70
2018-03-27T10:10:04.638Z,8.80
2018-03-27T10:12:32.876Z,8.60
2018-03-27T10:15:01.873Z,9.20
2018-03-27T10:17:30.844Z,9.20
2018-03-27T10:19:59.208Z,9.20
2018-03-27T10:22:27.456Z,9.40
2018-03-27T10:24:56.296Z,9.20
2018-03-27T10:27:25.292Z,8.90
2018-03-27T10:29:54.447Z,8.90
2018-03-27T10:32:22.697Z,8.90
2018-03-27T10:34:51.038Z,8.90
2018-03-27T10:37:20.017Z,8.80
2018-03-27T10:39:48.255Z,8.80
2018-03-27T10:42:16.521Z,8.90
2018-03-27T10:44:44.747Z,9.10
2018-03-27T10:47:12.983Z,10.10
2018-03-27T10:49:41.232Z,11.20
2018-03-27T10:52:09.448Z,12.00
2018-03-27T10:54:37.653Z,13.20
2018-03-27T10:57:06.686Z,14.00
2018-03-27T10:59:34.935Z,13.90
2018-03-27T11:02:03.936Z,13.50
2018-03-27T11:04:32.349Z,13.50
2018-03-27T11:07:00.577Z,13.80
2018-03-27T11:09:29.581Z,12.80
2018-03-27T11:11:57.962Z,12.80
2018-03-27T11:14:27.007Z,11.40
2018-03-27T11:16:55.254Z,11.40
2018-03-27T11:19:24.890Z,10.50
2018-03-27T11:21:53.133Z,10.50
2018-03-27T11:24:21.383Z,10.30
2018-03-27T11:26:50.467Z,10.20
2018-03-27T11:29:18.834Z,10.20
2018-03-27T11:31:47.336Z,10.90
2018-03-27T11:34:16.472Z,11.50
2018-03-27T11:36:44.734Z,11.40
2018-03-27T11:39:13.056Z,11.30
2018-03-27T11:41:41.389Z,11.30
2018-03-27T11:44:09.655Z,11.30
2018-03-27T11:46:38.912Z,11.60
2018-03-27T11:49:07.196Z,11.50
2018-03-27T11:51:35.404Z,11.50
2018-03-27T11:54:04.382Z,12.10
2018-03-27T11:56:32.648Z,12.10
2018-03-27T11:59:00.917Z,13.50
2018-03-27T12:01:29.907Z,15.20
2018-03-27T12:03:58.184Z,15.20
2018-03-27T12:06:26.395Z,15.30
2018-03-27T12:08:55.474Z,17.30
2018-03-27T12:11:23.918Z,17.30
2018-03-27T12:13:52.180Z,17.20
2018-03-27T12:16:20.393Z,15.70
2018-03-27T12:18:48.697Z,14.20
2018-03-27T12:21:17.025Z,13.70
2018-03-27T12:23:45.256Z,13.30
2018-03-27T12:26:13.506Z,12.60
2018-03-27T12:28:41.702Z,12.40
2018-03-27T12:31:09.965Z,12.00
2018-03-27T12:33:38.199Z,11.80
2018-03-27T12:36:06.499Z,11.50
2018-03-27T12:38:34.686Z,11.10
2018-03-27T12:41:02.910Z,10.90
2018-03-27T12:43:31.885Z,10.30
2018-03-27T12:46:01.028Z,9.90
2018-03-27T12:48:29.316Z,9.90
2018-03-27T12:50:57.568Z,10.00
2018-03-27T12:53:25.877Z,9.70
2018-03-27T12:55:54.136Z,9.40
2018-03-27T12:58:22.336Z,9.50
2018-03-27T13:00:50.597Z,9.20
2018-03-27T13:03:18.804Z,9.60
2018-03-27T13:05:47.272Z,9.90
2018-03-27T13:08:15.510Z,10.00
2018-03-27T13:10:43.728Z,10.50
2018-03-27T13:13:11.990Z,11.80
2018-03-27T13:15:40.242Z,12.50
2018-03-27T13:18:08.544Z,12.20
2018-03-27T13:20:36.830Z,12.20
2018-03-27T13:23:04.974Z,12.20
2018-03-27T13:25:33.236Z,12.40
2018-03-27T13:28:01.505Z,12.80
2018-03-27T13:30:29.749Z,13.40
2018-03-27T13:32:58.171Z,13.90
2018-03-27T13:35:26.457Z,13.50
2018-03-27T13:37:54.723Z,13.70
2018-03-27T13:40:23.036Z,14.50
2018-03-27T13:42:51.264Z,15.10
2018-03-27T13:45:19.462Z,14.90
2018-03-27T13:47:47.703Z,14.20
2018-03-27T13:50:16.691Z,13.60
2018-03-27T13:52:45.653Z,13.80
2018-03-27T13:55:13.882Z,13.90
2018-03-27T13:57:42.080Z,14.20
2018-03-27T14:00:10.310Z,14.70
2018-03-27T14:02:39.355Z,12.60
2018-03-27T14:05:07.585Z,12.50
2018-03-27T14:07:36.617Z,11.40
2018-03-27T14:10:05.062Z,11.30
2018-03-27T14:12:33.403Z,11.00
2018-03-27T14:15:01.985Z,10.70
2018-03-27T14:17:30.185Z,10.50
2018-03-27T14:19:59.235Z,9.50
2018-03-27T14:22:27.402Z,9.50
2018-03-27T14:24:55.684Z,9.00
2018-03-27T14:27:24.080Z,8.60
2018-03-27T14:29:52.297Z,8.40
2018-03-27T14:32:20.511Z,8.40
2018-03-27T14:34:48.725Z,8.70
2018-03-27T14:37:16.907Z,9.90
2018-03-27T14:39:46.105Z,11.40
2018-03-27T14:42:14.350Z,11.40
2018-03-27T14:44:42.609Z,12.30
2018-03-27T14:47:10.881Z,12.60
2018-03-27T14:49:39.098Z,13.00
2018-03-27T14:52:07.381Z,13.30
2018-03-27T14:54:36.528Z,12.50
2018-03-27T14:57:04.892Z,12.40
2018-03-27T14:59:33.902Z,12.10
2018-03-27T15:02:02.218Z,12.00
2018-03-27T15:04:30.508Z,11.40
2018-03-27T15:06:59.510Z,11.30
2018-03-27T15:09:28.947Z,11.30
2018-03-27T15:11:57.199Z,11.40
2018-03-27T15:14:26.196Z,10.50
2018-03-27T15:16:54.452Z,10.40
2018-03-27T15:19:23.431Z,10.70
2018-03-27T15:21:51.657Z,10.70
2018-03-27T15:24:19.905Z,11.00
2018-03-27T15:26:48.113Z,10.80
2018-03-27T15:29:16.323Z,11.30
2018-03-27T15:31:44.626Z,11.70
2018-03-27T15:34:13.596Z,11.00
2018-03-27T15:36:41.806Z,10.90
2018-03-27T15:39:10.044Z,10.90
2018-03-27T15:41:38.279Z,10.90
2018-03-27T15:44:06.500Z,10.90
2018-03-27T15:46:34.718Z,10.70
2018-03-27T15:49:02.920Z,10.50
2018-03-27T15:51:31.178Z,9.90
2018-03-27T15:53:59.431Z,9.60
2018-03-27T15:56:27.629Z,9.50
2018-03-27T15:58:55.828Z,9.40
2018-03-27T16:01:24.134Z,9.00
2018-03-27T16:03:53.137Z,9.40
2018-03-27T16:06:21.312Z,9.40
2018-03-27T16:08:50.381Z,9.50
2018-03-27T16:11:18.570Z,9.40
2018-03-27T16:13:46.777Z,9.40
2018-03-27T16:16:15.049Z,9.50
2018-03-27T16:18:43.255Z,9.40
2018-03-27T16:21:11.457Z,9.20
2018-03-27T16:23:40.679Z,9.10
2018-03-27T16:26:09.648Z,9.20
2018-03-27T16:28:37.853Z,9.20
2018-03-27T16:31:06.920Z,9.20
2018-03-27T16:33:35.117Z,9.10
2018-03-27T16:36:04.131Z,9.10
2018-03-27T16:38:32.357Z,9.00
2018-03-27T16:41:00.662Z,8.80
2018-03-27T16:43:29.625Z,9.10
2018-03-27T16:45:57.842Z,9.10
2018-03-27T16:48:26.937Z,9.00
2018-03-27T16:50:55.984Z,9.00
2018-03-27T16:53:24.291Z,9.00
2018-03-27T16:55:52.493Z,8.90
2018-03-27T16:58:20.708Z,8.80
2018-03-27T17:00:49.017Z,8.80
2018-03-27T17:03:17.227Z,8.80
2018-03-27T17:05:45.474Z,8.80
2018-03-27T17:08:14.527Z,8.60
2018-03-27T17:10:42.741Z,8.60
2018-03-27T17:13:10.925Z,8.50
2018-03-27T17:15:39.923Z,8.20
2018-03-27T17:18:09.129Z,8.10
2018-03-27T17:20:37.326Z,8.00
2018-03-27T17:23:05.828Z,8.20
2018-03-27T17:25:34.029Z,8.10
2018-03-27T17:28:02.225Z,8.20
2018-03-27T17:30:31.208Z,8.10
2018-03-27T17:33:00.213Z,8.00
2018-03-27T17:35:29.185Z,8.10
2018-03-27T17:37:57.592Z,8.00
2018-03-27T17:40:25.832Z,8.10
2018-03-27T17:42:54.127Z,8.10
2018-03-27T17:45:22.440Z,8.10
2018-03-27T17:47:50.662Z,8.00
2018-03-27T17:50:18.887Z,7.90
2018-03-27T17:52:47.906Z,7.80
2018-03-27T17:55:16.105Z,7.80
2018-03-27T17:57:44.318Z,7.80
2018-03-27T18:00:12.577Z,7.70
2018-03-27T18:02:41.547Z,7.50
2018-03-27T18:05:09.916Z,7.40
2018-03-27T18:07:38.528Z,7.50
2018-03-27T18:10:07.643Z,7.50
2018-03-27T18:12:36.224Z,7.50
2018-03-27T18:15:05.210Z,7.30
2018-03-27T18:17:34.180Z,7.20
2018-03-27T18:20:03.264Z,7.20
2018-03-27T18:22:31.732Z,7.20
2018-03-27T18:25:00.024Z,7.10
2018-03-27T18:27:28.214Z,7.10
2018-03-27T18:29:57.225Z,7.00
2018-03-27T18:32:26.492Z,6.90
2018-03-27T18:34:54.678Z,6.90
2018-03-27T18:37:22.936Z,6.90
2018-03-27T18:39:51.081Z,6.90
2018-03-27T18:42:19.312Z,6.90
2018-03-27T18:44:47.524Z,6.90
2018-03-27T18:47:15.729Z,6.90
2018-03-27T18:49:43.933Z,6.90
2018-03-27T18:52:12.213Z,6.80
2018-03-27T18:54:41.171Z,6.90
2018-03-27T18:57:09.760Z,6.80
2018-03-27T18:59:38.036Z,6.90
2018-03-27T19:02:06.226Z,6.90
2018-03-27T19:04:34.474Z,6.90
2018-03-27T19:07:02.703Z,6.90
2018-03-27T19:09:31.668Z,6.80
2018-03-27T19:11:59.954Z,6.80
2018-03-27T19:14:28.948Z,6.80
2018-03-27T19:16:57.163Z,6.80
2018-03-27T19:19:25.366Z,7.00
2018-03-27T19:21:53.621Z,7.10
2018-03-27T19:24:21.810Z,7.20
2018-03-27T19:26:49.998Z,7.20
2018-03-27T19:29:18.236Z,7.00
2018-03-27T19:31:46.436Z,7.00
2018-03-27T19:34:14.638Z,7.10
2018-03-27T19:36:42.905Z,7.00
2018-03-27T19:39:11.113Z,6.80
2018-03-27T19:41:40.073Z,6.80
2018-03-27T19:44:08.367Z,6.80
2018-03-27T19:46:36.670Z,6.70
2018-03-27T19:49:05.633Z,7.00
2018-03-27T19:51:33.864Z,6.90
2018-03-27T19:54:02.086Z,6.70
2018-03-27T19:56:30.331Z,6.60
2018-03-27T19:58:58.586Z,6.50
2018-03-27T20:01:26.773Z,6.50
2018-03-27T20:03:55.033Z,6.50
2018-03-27T20:06:23.323Z,6.50
2018-03-27T20:08:51.531Z,6.40
2018-03-27T20:11:19.819Z,6.40
2018-03-27T20:13:48.138Z,6.40
2018-03-27T20:16:16.339Z,6.50
2018-03-27T20:18:44.565Z,6.40
2018-03-27T20:21:13.629Z,6.50
2018-03-27T20:23:41.857Z,6.50
2018-03-27T20:26:10.234Z,6.40
2018-03-27T20:28:39.682Z,6.40
2018-03-27T20:31:07.883Z,6.40
2018-03-27T20:33:36.105Z,6.40
2018-03-27T20:36:04.323Z,6.30
2018-03-27T20:38:32.544Z,6.50
2018-03-27T20:41:00.767Z,6.60
2018-03-27T20:43:29.062Z,6.60
2018-03-27T20:45:58.101Z,6.40
2018-03-27T20:48:26.311Z,6.40
2018-03-27T20:50:54.533Z,6.40
2018-03-27T20:53:23.018Z,6.40
2018-03-27T20:55:51.260Z,6.30
2018-03-27T20:58:19.513Z,6.20
2018-03-27T21:00:47.713Z,6.40
2018-03-27T21:03:16.748Z,6.30
2018-03-27T21:05:46.237Z,6.30
2018-03-27T21:08:14.437Z,6.30
2018-03-27T21:10:42.645Z,6.20
2018-03-27T21:13:11.628Z,6.20
2018-03-27T21:15:39.821Z,6.30
2018-03-27T21:18:08.011Z,6.30
2018-03-27T21:20:37.005Z,6.20
2018-03-27T21:23:05.965Z,6.30
2018-03-27T21:25:34.160Z,6.30
2018-03-27T21:28:03.473Z,6.40
2018-03-27T21:30:32.644Z,6.60
2018-03-27T21:35:35.376Z,6.70
2018-03-27T21:38:03.623Z,6.60
2018-03-27T21:40:31.809Z,6.60
2018-03-27T21:43:00.813Z,6.40
2018-03-27T21:45:29.817Z,6.40
2018-03-27T21:47:58.020Z,6.40
2018-03-27T21:50:26.358Z,6.50
2018-03-27T21:52:55.372Z,6.40
2018-03-27T21:55:24.586Z,6.50
2018-03-27T21:57:53.766Z,6.30
2018-03-27T22:00:21.993Z,6.30
2018-03-27T22:02:50.208Z,6.30
2018-03-27T22:05:19.772Z,6.50
2018-03-27T22:07:48.052Z,6.40
2018-03-27T22:10:16.391Z,6.40
2018-03-27T22:12:44.680Z,6.30
2018-03-27T22:15:12.886Z,6.40
2018-03-27T22:17:41.077Z,6.30
2018-03-27T22:20:10.049Z,6.30
2018-03-27T22:22:38.275Z,6.20
2018-03-27T22:25:06.469Z,6.30
2018-03-27T22:27:34.716Z,6.20
2018-03-27T22:30:02.903Z,6.10
2018-03-27T22:32:31.112Z,6.10
2018-03-27T22:34:59.542Z,6.10
2018-03-27T22:37:28.532Z,6.10
2018-03-27T22:39:57.492Z,6.10
2018-03-27T22:42:25.729Z,6.10
2018-03-27T22:44:53.926Z,6.20
2018-03-27T22:47:22.139Z,6.10
2018-03-27T22:49:51.207Z,6.10
2018-03-27T22:52:19.417Z,6.10
2018-03-27T22:54:48.991Z,6.10
2018-03-27T22:57:17.258Z,6.10
2018-03-27T22:59:46.381Z,6.10
2018-03-27T23:02:14.620Z,6.10
2018-03-27T23:04:42.813Z,6.00
2018-03-27T23:07:11.055Z,6.10
2018-03-27T23:09:39.705Z,6.00
2018-03-27T23:12:08.716Z,6.10
2018-03-27T23:14:36.957Z,6.00
2018-03-27T23:17:05.229Z,6.10
2018-03-27T23:19:33.541Z,6.10
2018-03-27T23:22:01.750Z,6.10
2018-03-27T23:24:30.141Z,6.00
2018-03-27T23:26:58.826Z,6.10
2018-03-27T23:29:27.042Z,6.00
2018-03-27T23:31:55.997Z,6.10
2018-03-27T23:34:24.252Z,6.00
2018-03-27T23:36:52.501Z,6.00
2018-03-27T23:39:21.457Z,6.00
2018-03-27T23:41:49.791Z,6.00
2018-03-27T23:44:17.979Z,6.00
2018-03-27T23:46:46.323Z,5.90
2018-03-27T23:49:14.773Z,5.90
2018-03-27T23:51:42.993Z,5.90
2018-03-27T23:54:11.201Z,5.90
2018-03-27T23:56:39.502Z,5.90
2018-03-27T23:59:08.561Z,5.90
